sensor_id;sensor_type;location;lat;lon;timestamp;temperature;humidity
18950;DHT22;9608;49.288;8.130;2023-08-31T00:00:43;12.60;99.90
18950;DHT22;9608;49.288;8.130;2023-08-31T00:03:10;12.70;99.90
18950;DHT22;9608;49.288;8.130;2023-08-31T00:05:37;12.70;99.90
18950;DHT22;9608;49.288;8.130;2023-08-31T00:08:06;12.70;99.90
18950;DHT22;9608;49.288;8.130;2023-08-31T00:10:33;12.70;99.90
18950;DHT22;9608;49.288;8.130;2023-08-31T00:13:01;12.70;99.90
18950;DHT22;9608;49.288;8.130;2023-08-31T00:15:28;12.70;99.90
18950;DHT22;9608;49.288;8.130;2023-08-31T00:17:58;12.70;99.90
18950;DHT22;9608;49.288;8.130;2023-08-31T00:20:25;12.80;99.90
18950;DHT22;9608;49.288;8.130;2023-08-31T00:22:52;12.80;99.90
18950;DHT22;9608;49.288;8.130;2023-08-31T00:25:18;12.90;99.90
18950;DHT22;9608;49.288;8.130;2023-08-31T00:27:45;12.90;99.90
18950;DHT22;9608;49.288;8.130;2023-08-31T00:30:15;12.90;99.90
18950;DHT22;9608;49.288;8.130;2023-08-31T00:32:42;12.90;99.90
18950;DHT22;9608;49.288;8.130;2023-08-31T00:35:09;12.90;99.90
18950;DHT22;9608;49.288;8.130;2023-08-31T00:37:35;12.80;99.90
18950;DHT22;9608;49.288;8.130;2023-08-31T00:40:03;12.80;99.90
18950;DHT22;9608;49.288;8.130;2023-08-31T00:42:30;12.70;99.90
18950;DHT22;9608;49.288;8.130;2023-08-31T00:44:57;12.80;99.90
18950;DHT22;9608;49.288;8.130;2023-08-31T00:47:26;12.80;99.90
18950;DHT22;9608;49.288;8.130;2023-08-31T00:49:53;12.80;99.90
18950;DHT22;9608;49.288;8.130;2023-08-31T00:52:19;12.80;99.90
18950;DHT22;9608;49.288;8.130;2023-08-31T00:54:46;12.90;99.90
18950;DHT22;9608;49.288;8.130;2023-08-31T00:57:14;12.90;99.90
18950;DHT22;9608;49.288;8.130;2023-08-31T00:59:40;12.90;99.90
18950;DHT22;9608;49.288;8.130;2023-08-31T01:02:14;12.90;99.90
18950;DHT22;9608;49.288;8.130;2023-08-31T01:04:55;12.90;99.90
18950;DHT22;9608;49.288;8.130;2023-08-31T01:07:30;12.80;99.90
18950;DHT22;9608;49.288;8.130;2023-08-31T01:10:07;12.80;99.90
18950;DHT22;9608;49.288;8.130;2023-08-31T01:12:40;12.70;99.90
18950;DHT22;9608;49.288;8.130;2023-08-31T01:15:11;12.70;99.90
18950;DHT22;9608;49.288;8.130;2023-08-31T01:17:40;12.80;99.90
18950;DHT22;9608;49.288;8.130;2023-08-31T01:20:11;12.80;99.90
18950;DHT22;9608;49.288;8.130;2023-08-31T01:22:44;12.80;99.90
18950;DHT22;9608;49.288;8.130;2023-08-31T01:25:14;12.80;99.90
18950;DHT22;9608;49.288;8.130;2023-08-31T01:27:43;12.80;99.90
18950;DHT22;9608;49.288;8.130;2023-08-31T01:30:10;12.80;99.90
18950;DHT22;9608;49.288;8.130;2023-08-31T01:32:37;12.80;99.90
18950;DHT22;9608;49.288;8.130;2023-08-31T01:35:05;12.80;99.90
18950;DHT22;9608;49.288;8.130;2023-08-31T01:37:39;12.80;99.90
18950;DHT22;9608;49.288;8.130;2023-08-31T01:40:10;12.80;99.90
18950;DHT22;9608;49.288;8.130;2023-08-31T01:42:42;12.70;99.90
18950;DHT22;9608;49.288;8.130;2023-08-31T01:45:10;12.70;99.90
18950;DHT22;9608;49.288;8.130;2023-08-31T01:47:37;12.70;99.90
18950;DHT22;9608;49.288;8.130;2023-08-31T01:50:05;12.80;99.90
18950;DHT22;9608;49.288;8.130;2023-08-31T01:52:32;12.80;99.90
18950;DHT22;9608;49.288;8.130;2023-08-31T01:54:59;12.90;99.90
18950;DHT22;9608;49.288;8.130;2023-08-31T01:57:26;12.90;99.90
18950;DHT22;9608;49.288;8.130;2023-08-31T01:59:54;12.90;99.90
18950;DHT22;9608;49.288;8.130;2023-08-31T02:02:20;12.90;99.90
18950;DHT22;9608;49.288;8.130;2023-08-31T02:04:47;12.80;99.90
18950;DHT22;9608;49.288;8.130;2023-08-31T02:07:16;12.80;99.90
18950;DHT22;9608;49.288;8.130;2023-08-31T02:09:42;12.80;99.90
18950;DHT22;9608;49.288;8.130;2023-08-31T02:12:09;12.80;99.90
18950;DHT22;9608;49.288;8.130;2023-08-31T02:14:36;12.80;99.90
18950;DHT22;9608;49.288;8.130;2023-08-31T02:17:05;12.80;99.90
18950;DHT22;9608;49.288;8.130;2023-08-31T02:19:33;12.90;99.90
18950;DHT22;9608;49.288;8.130;2023-08-31T02:22:00;12.80;99.90
18950;DHT22;9608;49.288;8.130;2023-08-31T02:24:27;12.80;99.90
18950;DHT22;9608;49.288;8.130;2023-08-31T02:26:53;12.70;99.90
18950;DHT22;9608;49.288;8.130;2023-08-31T02:29:20;12.70;99.90
18950;DHT22;9608;49.288;8.130;2023-08-31T02:31:47;12.70;99.90
18950;DHT22;9608;49.288;8.130;2023-08-31T02:34:15;12.70;99.90
18950;DHT22;9608;49.288;8.130;2023-08-31T02:36:41;12.70;99.90
18950;DHT22;9608;49.288;8.130;2023-08-31T02:39:08;12.70;99.90
18950;DHT22;9608;49.288;8.130;2023-08-31T02:41:35;12.70;99.90
18950;DHT22;9608;49.288;8.130;2023-08-31T02:44:01;12.70;99.90
18950;DHT22;9608;49.288;8.130;2023-08-31T02:46:28;12.70;99.90
18950;DHT22;9608;49.288;8.130;2023-08-31T02:48:55;12.70;99.90
18950;DHT22;9608;49.288;8.130;2023-08-31T02:51:23;12.70;99.90
18950;DHT22;9608;49.288;8.130;2023-08-31T02:53:50;12.70;99.90
18950;DHT22;9608;49.288;8.130;2023-08-31T02:56:18;12.60;99.90
18950;DHT22;9608;49.288;8.130;2023-08-31T02:58:45;12.60;99.90
18950;DHT22;9608;49.288;8.130;2023-08-31T03:01:13;12.60;99.90
18950;DHT22;9608;49.288;8.130;2023-08-31T03:03:41;12.50;99.90
18950;DHT22;9608;49.288;8.130;2023-08-31T03:06:09;12.50;99.90
18950;DHT22;9608;49.288;8.130;2023-08-31T03:08:38;12.60;99.90
18950;DHT22;9608;49.288;8.130;2023-08-31T03:11:05;12.60;99.90
18950;DHT22;9608;49.288;8.130;2023-08-31T03:13:32;12.60;99.90
18950;DHT22;9608;49.288;8.130;2023-08-31T03:16:00;12.60;99.90
18950;DHT22;9608;49.288;8.130;2023-08-31T03:18:28;12.60;99.90
18950;DHT22;9608;49.288;8.130;2023-08-31T03:20:55;12.50;99.90
18950;DHT22;9608;49.288;8.130;2023-08-31T03:23:22;12.50;99.90
18950;DHT22;9608;49.288;8.130;2023-08-31T03:25:50;12.40;99.90
18950;DHT22;9608;49.288;8.130;2023-08-31T03:28:17;12.40;99.90
18950;DHT22;9608;49.288;8.130;2023-08-31T03:30:44;12.40;99.90
18950;DHT22;9608;49.288;8.130;2023-08-31T03:33:11;12.40;99.90
18950;DHT22;9608;49.288;8.130;2023-08-31T03:35:38;12.40;99.90
18950;DHT22;9608;49.288;8.130;2023-08-31T03:38:05;12.40;99.90
18950;DHT22;9608;49.288;8.130;2023-08-31T03:40:31;12.40;99.90
18950;DHT22;9608;49.288;8.130;2023-08-31T03:42:59;12.40;99.90
18950;DHT22;9608;49.288;8.130;2023-08-31T03:45:26;12.40;99.90
18950;DHT22;9608;49.288;8.130;2023-08-31T03:47:53;12.40;99.90
18950;DHT22;9608;49.288;8.130;2023-08-31T03:50:20;12.40;99.90
18950;DHT22;9608;49.288;8.130;2023-08-31T03:52:47;12.40;99.90
18950;DHT22;9608;49.288;8.130;2023-08-31T03:55:13;12.50;99.90
18950;DHT22;9608;49.288;8.130;2023-08-31T03:57:40;12.50;99.90
18950;DHT22;9608;49.288;8.130;2023-08-31T04:00:10;12.50;99.90
18950;DHT22;9608;49.288;8.130;2023-08-31T04:02:38;12.60;99.90
18950;DHT22;9608;49.288;8.130;2023-08-31T04:05:05;12.60;99.90
18950;DHT22;9608;49.288;8.130;2023-08-31T04:07:35;12.70;99.90
18950;DHT22;9608;49.288;8.130;2023-08-31T04:10:01;12.70;99.90
18950;DHT22;9608;49.288;8.130;2023-08-31T04:12:29;12.70;99.90
18950;DHT22;9608;49.288;8.130;2023-08-31T04:14:56;12.70;99.90
18950;DHT22;9608;49.288;8.130;2023-08-31T04:17:24;12.80;99.90
18950;DHT22;9608;49.288;8.130;2023-08-31T04:19:51;12.80;99.90
18950;DHT22;9608;49.288;8.130;2023-08-31T04:22:18;12.80;99.90
18950;DHT22;9608;49.288;8.130;2023-08-31T04:24:44;12.80;99.90
18950;DHT22;9608;49.288;8.130;2023-08-31T04:27:11;12.80;99.90
18950;DHT22;9608;49.288;8.130;2023-08-31T04:29:38;12.70;99.90
18950;DHT22;9608;49.288;8.130;2023-08-31T04:32:05;12.70;99.90
18950;DHT22;9608;49.288;8.130;2023-08-31T04:34:33;12.60;99.90
18950;DHT22;9608;49.288;8.130;2023-08-31T04:37:01;12.60;99.90
18950;DHT22;9608;49.288;8.130;2023-08-31T04:39:27;12.60;99.90
18950;DHT22;9608;49.288;8.130;2023-08-31T04:41:54;12.50;99.90
18950;DHT22;9608;49.288;8.130;2023-08-31T04:44:21;12.50;99.90
18950;DHT22;9608;49.288;8.130;2023-08-31T04:46:47;12.50;99.90
18950;DHT22;9608;49.288;8.130;2023-08-31T04:49:14;12.50;99.90
18950;DHT22;9608;49.288;8.130;2023-08-31T04:51:44;12.50;99.90
18950;DHT22;9608;49.288;8.130;2023-08-31T04:54:11;12.50;99.90
18950;DHT22;9608;49.288;8.130;2023-08-31T04:56:37;12.60;99.90
18950;DHT22;9608;49.288;8.130;2023-08-31T04:59:04;12.60;99.90
18950;DHT22;9608;49.288;8.130;2023-08-31T05:01:31;12.60;99.90
18950;DHT22;9608;49.288;8.130;2023-08-31T05:03:58;12.60;99.90
18950;DHT22;9608;49.288;8.130;2023-08-31T05:06:25;12.60;99.90
18950;DHT22;9608;49.288;8.130;2023-08-31T05:08:53;12.60;99.90
18950;DHT22;9608;49.288;8.130;2023-08-31T05:11:20;12.60;99.90
18950;DHT22;9608;49.288;8.130;2023-08-31T05:13:47;12.60;99.90
18950;DHT22;9608;49.288;8.130;2023-08-31T05:16:14;12.60;99.90
18950;DHT22;9608;49.288;8.130;2023-08-31T05:18:40;12.70;99.90
18950;DHT22;9608;49.288;8.130;2023-08-31T05:21:07;12.80;99.90
18950;DHT22;9608;49.288;8.130;2023-08-31T05:23:34;12.90;99.90
18950;DHT22;9608;49.288;8.130;2023-08-31T05:26:02;12.90;99.90
18950;DHT22;9608;49.288;8.130;2023-08-31T05:28:29;12.90;99.90
18950;DHT22;9608;49.288;8.130;2023-08-31T05:30:57;12.90;99.90
18950;DHT22;9608;49.288;8.130;2023-08-31T05:33:24;13.00;99.90
18950;DHT22;9608;49.288;8.130;2023-08-31T05:35:54;13.00;99.90
18950;DHT22;9608;49.288;8.130;2023-08-31T05:38:21;13.20;99.90
18950;DHT22;9608;49.288;8.130;2023-08-31T05:40:48;13.20;99.90
18950;DHT22;9608;49.288;8.130;2023-08-31T05:43:17;13.30;99.90
18950;DHT22;9608;49.288;8.130;2023-08-31T05:45:43;13.40;99.90
18950;DHT22;9608;49.288;8.130;2023-08-31T05:48:12;13.60;99.90
18950;DHT22;9608;49.288;8.130;2023-08-31T05:50:38;13.70;99.90
18950;DHT22;9608;49.288;8.130;2023-08-31T05:53:05;13.80;99.90
18950;DHT22;9608;49.288;8.130;2023-08-31T05:55:33;13.80;99.90
18950;DHT22;9608;49.288;8.130;2023-08-31T05:58:00;13.90;99.90
18950;DHT22;9608;49.288;8.130;2023-08-31T06:00:29;13.90;99.90
18950;DHT22;9608;49.288;8.130;2023-08-31T06:02:56;14.00;99.90
18950;DHT22;9608;49.288;8.130;2023-08-31T06:05:22;14.10;99.90
18950;DHT22;9608;49.288;8.130;2023-08-31T06:07:49;14.20;99.90
18950;DHT22;9608;49.288;8.130;2023-08-31T06:10:16;14.40;99.90
18950;DHT22;9608;49.288;8.130;2023-08-31T06:12:42;14.50;99.90
18950;DHT22;9608;49.288;8.130;2023-08-31T06:15:09;14.60;99.90
18950;DHT22;9608;49.288;8.130;2023-08-31T06:17:38;14.70;99.90
18950;DHT22;9608;49.288;8.130;2023-08-31T06:20:06;14.90;99.90
18950;DHT22;9608;49.288;8.130;2023-08-31T06:22:33;15.00;99.90
18950;DHT22;9608;49.288;8.130;2023-08-31T06:25:01;15.20;99.90
18950;DHT22;9608;49.288;8.130;2023-08-31T06:27:28;15.20;99.90
18950;DHT22;9608;49.288;8.130;2023-08-31T06:29:55;15.40;99.90
18950;DHT22;9608;49.288;8.130;2023-08-31T06:32:21;15.50;99.90
18950;DHT22;9608;49.288;8.130;2023-08-31T06:34:49;15.70;99.90
18950;DHT22;9608;49.288;8.130;2023-08-31T06:37:16;15.60;99.90
18950;DHT22;9608;49.288;8.130;2023-08-31T06:39:43;15.60;99.90
18950;DHT22;9608;49.288;8.130;2023-08-31T06:42:09;15.40;99.90
18950;DHT22;9608;49.288;8.130;2023-08-31T06:44:36;15.50;99.90
18950;DHT22;9608;49.288;8.130;2023-08-31T06:47:03;15.60;99.90
18950;DHT22;9608;49.288;8.130;2023-08-31T06:49:30;15.70;99.90
18950;DHT22;9608;49.288;8.130;2023-08-31T06:52:00;15.70;99.90
18950;DHT22;9608;49.288;8.130;2023-08-31T06:54:28;15.70;99.90
18950;DHT22;9608;49.288;8.130;2023-08-31T06:56:54;15.80;99.90
18950;DHT22;9608;49.288;8.130;2023-08-31T06:59:21;16.00;99.90
18950;DHT22;9608;49.288;8.130;2023-08-31T07:01:47;16.30;99.90
18950;DHT22;9608;49.288;8.130;2023-08-31T07:04:14;16.30;99.90
18950;DHT22;9608;49.288;8.130;2023-08-31T07:06:41;16.40;99.90
18950;DHT22;9608;49.288;8.130;2023-08-31T07:09:09;16.50;99.90
18950;DHT22;9608;49.288;8.130;2023-08-31T07:11:36;16.70;99.90
18950;DHT22;9608;49.288;8.130;2023-08-31T07:14:02;16.90;99.90
18950;DHT22;9608;49.288;8.130;2023-08-31T07:16:29;17.00;99.90
18950;DHT22;9608;49.288;8.130;2023-08-31T07:18:56;17.00;99.90
18950;DHT22;9608;49.288;8.130;2023-08-31T07:21:22;17.00;99.90
18950;DHT22;9608;49.288;8.130;2023-08-31T07:23:49;16.90;99.90
18950;DHT22;9608;49.288;8.130;2023-08-31T07:26:17;17.00;99.90
18950;DHT22;9608;49.288;8.130;2023-08-31T07:28:44;16.90;99.90
18950;DHT22;9608;49.288;8.130;2023-08-31T07:31:13;16.90;99.90
18950;DHT22;9608;49.288;8.130;2023-08-31T07:33:40;16.90;99.90
18950;DHT22;9608;49.288;8.130;2023-08-31T07:36:07;16.80;99.90
18950;DHT22;9608;49.288;8.130;2023-08-31T07:38:34;17.10;99.90
18950;DHT22;9608;49.288;8.130;2023-08-31T07:41:01;17.30;99.90
18950;DHT22;9608;49.288;8.130;2023-08-31T07:43:31;17.20;99.90
18950;DHT22;9608;49.288;8.130;2023-08-31T07:45:57;17.20;99.90
18950;DHT22;9608;49.288;8.130;2023-08-31T07:48:24;17.20;99.90
18950;DHT22;9608;49.288;8.130;2023-08-31T07:50:51;17.30;99.90
18950;DHT22;9608;49.288;8.130;2023-08-31T07:53:18;17.30;99.90
18950;DHT22;9608;49.288;8.130;2023-08-31T07:55:51;17.40;99.90
18950;DHT22;9608;49.288;8.130;2023-08-31T07:58:19;17.50;99.90
18950;DHT22;9608;49.288;8.130;2023-08-31T08:00:47;17.50;99.90
18950;DHT22;9608;49.288;8.130;2023-08-31T08:03:14;17.70;99.90
18950;DHT22;9608;49.288;8.130;2023-08-31T08:05:41;17.80;99.90
18950;DHT22;9608;49.288;8.130;2023-08-31T08:08:08;17.90;99.90
18950;DHT22;9608;49.288;8.130;2023-08-31T08:10:35;17.80;99.90
18950;DHT22;9608;49.288;8.130;2023-08-31T08:13:01;17.70;99.90
18950;DHT22;9608;49.288;8.130;2023-08-31T08:15:29;17.70;99.90
18950;DHT22;9608;49.288;8.130;2023-08-31T08:17:57;17.60;99.90
18950;DHT22;9608;49.288;8.130;2023-08-31T08:20:24;17.50;99.90
18950;DHT22;9608;49.288;8.130;2023-08-31T08:22:51;17.60;99.90
18950;DHT22;9608;49.288;8.130;2023-08-31T08:25:18;17.60;99.90
18950;DHT22;9608;49.288;8.130;2023-08-31T08:27:45;17.60;99.90
18950;DHT22;9608;49.288;8.130;2023-08-31T08:30:12;17.70;99.90
18950;DHT22;9608;49.288;8.130;2023-08-31T08:32:39;17.90;99.90
18950;DHT22;9608;49.288;8.130;2023-08-31T08:35:08;17.80;99.90
18950;DHT22;9608;49.288;8.130;2023-08-31T08:37:34;18.00;99.90
18950;DHT22;9608;49.288;8.130;2023-08-31T08:40:02;18.10;99.90
18950;DHT22;9608;49.288;8.130;2023-08-31T08:42:29;18.10;99.90
18950;DHT22;9608;49.288;8.130;2023-08-31T08:44:57;18.20;99.90
18950;DHT22;9608;49.288;8.130;2023-08-31T08:47:25;18.20;99.90
18950;DHT22;9608;49.288;8.130;2023-08-31T08:49:53;18.10;99.90
18950;DHT22;9608;49.288;8.130;2023-08-31T08:52:22;18.30;99.90
18950;DHT22;9608;49.288;8.130;2023-08-31T08:54:49;18.30;99.90
18950;DHT22;9608;49.288;8.130;2023-08-31T08:57:16;18.30;99.90
18950;DHT22;9608;49.288;8.130;2023-08-31T08:59:43;18.40;99.90
18950;DHT22;9608;49.288;8.130;2023-08-31T09:02:10;18.40;99.90
18950;DHT22;9608;49.288;8.130;2023-08-31T09:04:37;18.60;99.90
18950;DHT22;9608;49.288;8.130;2023-08-31T09:07:04;18.80;99.90
18950;DHT22;9608;49.288;8.130;2023-08-31T09:09:34;18.80;99.90
18950;DHT22;9608;49.288;8.130;2023-08-31T09:12:14;18.90;99.90
18950;DHT22;9608;49.288;8.130;2023-08-31T09:14:40;19.00;99.90
18950;DHT22;9608;49.288;8.130;2023-08-31T09:17:07;18.90;99.90
18950;DHT22;9608;49.288;8.130;2023-08-31T09:19:34;18.90;99.90
18950;DHT22;9608;49.288;8.130;2023-08-31T09:22:01;19.00;99.90
18950;DHT22;9608;49.288;8.130;2023-08-31T09:24:28;18.90;99.90
18950;DHT22;9608;49.288;8.130;2023-08-31T09:26:57;19.00;99.90
18950;DHT22;9608;49.288;8.130;2023-08-31T09:29:24;19.20;99.90
18950;DHT22;9608;49.288;8.130;2023-08-31T09:31:51;19.50;99.90
18950;DHT22;9608;49.288;8.130;2023-08-31T09:34:18;19.60;99.90
18950;DHT22;9608;49.288;8.130;2023-08-31T09:36:45;19.50;99.90
18950;DHT22;9608;49.288;8.130;2023-08-31T09:39:15;19.40;99.90
18950;DHT22;9608;49.288;8.130;2023-08-31T09:41:58;19.50;99.90
18950;DHT22;9608;49.288;8.130;2023-08-31T09:44:28;19.80;99.90
18950;DHT22;9608;49.288;8.130;2023-08-31T09:46:55;19.70;99.90
18950;DHT22;9608;49.288;8.130;2023-08-31T09:49:24;19.50;99.90
18950;DHT22;9608;49.288;8.130;2023-08-31T09:51:52;19.80;99.90
18950;DHT22;9608;49.288;8.130;2023-08-31T09:54:20;20.10;99.90
18950;DHT22;9608;49.288;8.130;2023-08-31T09:56:47;20.30;99.90
18950;DHT22;9608;49.288;8.130;2023-08-31T09:59:16;20.30;99.90
18950;DHT22;9608;49.288;8.130;2023-08-31T10:01:45;20.30;99.90
18950;DHT22;9608;49.288;8.130;2023-08-31T10:04:13;20.30;99.90
18950;DHT22;9608;49.288;8.130;2023-08-31T10:06:41;20.20;99.90
18950;DHT22;9608;49.288;8.130;2023-08-31T10:09:08;20.30;99.90
18950;DHT22;9608;49.288;8.130;2023-08-31T10:11:38;20.60;99.90
18950;DHT22;9608;49.288;8.130;2023-08-31T10:14:05;20.40;99.90
18950;DHT22;9608;49.288;8.130;2023-08-31T10:16:34;20.30;99.90
18950;DHT22;9608;49.288;8.130;2023-08-31T10:19:02;20.40;99.90
18950;DHT22;9608;49.288;8.130;2023-08-31T10:21:29;20.30;99.90
18950;DHT22;9608;49.288;8.130;2023-08-31T10:23:56;20.40;99.90
18950;DHT22;9608;49.288;8.130;2023-08-31T10:26:23;20.60;99.90
18950;DHT22;9608;49.288;8.130;2023-08-31T10:28:51;20.40;99.90
18950;DHT22;9608;49.288;8.130;2023-08-31T10:31:18;20.30;99.90
18950;DHT22;9608;49.288;8.130;2023-08-31T10:33:54;20.20;99.90
18950;DHT22;9608;49.288;8.130;2023-08-31T10:36:22;20.20;99.90
18950;DHT22;9608;49.288;8.130;2023-08-31T10:39:05;20.40;99.90
18950;DHT22;9608;49.288;8.130;2023-08-31T10:41:33;20.60;99.90
18950;DHT22;9608;49.288;8.130;2023-08-31T10:44:00;20.50;99.90
18950;DHT22;9608;49.288;8.130;2023-08-31T10:46:29;20.40;99.90
18950;DHT22;9608;49.288;8.130;2023-08-31T10:48:59;20.60;99.90
18950;DHT22;9608;49.288;8.130;2023-08-31T10:51:27;20.60;99.90
18950;DHT22;9608;49.288;8.130;2023-08-31T10:54:19;20.20;99.90
18950;DHT22;9608;49.288;8.130;2023-08-31T10:56:53;20.20;99.90
18950;DHT22;9608;49.288;8.130;2023-08-31T10:59:21;20.00;99.90
18950;DHT22;9608;49.288;8.130;2023-08-31T11:01:52;19.70;99.90
18950;DHT22;9608;49.288;8.130;2023-08-31T11:04:21;19.80;99.90
18950;DHT22;9608;49.288;8.130;2023-08-31T11:06:48;19.80;99.90
18950;DHT22;9608;49.288;8.130;2023-08-31T11:09:22;19.70;99.90
18950;DHT22;9608;49.288;8.130;2023-08-31T11:11:48;19.60;99.90
18950;DHT22;9608;49.288;8.130;2023-08-31T11:14:15;19.60;99.90
18950;DHT22;9608;49.288;8.130;2023-08-31T11:16:43;19.90;99.90
18950;DHT22;9608;49.288;8.130;2023-08-31T11:19:10;20.30;99.90
18950;DHT22;9608;49.288;8.130;2023-08-31T11:21:38;20.70;99.90
18950;DHT22;9608;49.288;8.130;2023-08-31T11:24:07;20.90;99.90
18950;DHT22;9608;49.288;8.130;2023-08-31T11:26:34;20.80;99.90
18950;DHT22;9608;49.288;8.130;2023-08-31T11:29:01;20.80;99.90
18950;DHT22;9608;49.288;8.130;2023-08-31T11:31:32;20.50;99.90
18950;DHT22;9608;49.288;8.130;2023-08-31T11:33:59;20.30;99.90
18950;DHT22;9608;49.288;8.130;2023-08-31T11:36:25;20.20;99.90
18950;DHT22;9608;49.288;8.130;2023-08-31T11:38:54;20.30;99.90
18950;DHT22;9608;49.288;8.130;2023-08-31T11:41:21;20.10;99.90
18950;DHT22;9608;49.288;8.130;2023-08-31T11:43:48;19.90;99.90
18950;DHT22;9608;49.288;8.130;2023-08-31T11:46:16;19.60;99.90
18950;DHT22;9608;49.288;8.130;2023-08-31T11:48:43;19.80;99.90
18950;DHT22;9608;49.288;8.130;2023-08-31T11:51:10;19.90;99.90
18950;DHT22;9608;49.288;8.130;2023-08-31T11:53:38;20.20;99.90
18950;DHT22;9608;49.288;8.130;2023-08-31T11:56:06;20.40;99.90
18950;DHT22;9608;49.288;8.130;2023-08-31T11:58:32;20.70;99.90
18950;DHT22;9608;49.288;8.130;2023-08-31T12:01:00;21.00;99.90
18950;DHT22;9608;49.288;8.130;2023-08-31T12:03:28;21.20;99.90
18950;DHT22;9608;49.288;8.130;2023-08-31T12:05:55;21.40;99.90
18950;DHT22;9608;49.288;8.130;2023-08-31T12:08:24;21.30;99.90
18950;DHT22;9608;49.288;8.130;2023-08-31T12:10:51;20.90;99.90
18950;DHT22;9608;49.288;8.130;2023-08-31T12:13:20;20.80;99.90
18950;DHT22;9608;49.288;8.130;2023-08-31T12:15:47;20.80;99.90
18950;DHT22;9608;49.288;8.130;2023-08-31T12:18:18;20.50;99.90
18950;DHT22;9608;49.288;8.130;2023-08-31T12:20:46;20.30;99.90
18950;DHT22;9608;49.288;8.130;2023-08-31T12:23:13;20.30;99.90
18950;DHT22;9608;49.288;8.130;2023-08-31T12:25:45;20.20;99.90
18950;DHT22;9608;49.288;8.130;2023-08-31T12:28:12;19.80;99.90
18950;DHT22;9608;49.288;8.130;2023-08-31T12:30:42;19.60;99.90
18950;DHT22;9608;49.288;8.130;2023-08-31T12:33:09;19.70;99.90
18950;DHT22;9608;49.288;8.130;2023-08-31T12:35:36;19.60;99.90
18950;DHT22;9608;49.288;8.130;2023-08-31T12:38:03;19.50;99.90
18950;DHT22;9608;49.288;8.130;2023-08-31T12:40:30;19.70;99.90
18950;DHT22;9608;49.288;8.130;2023-08-31T12:42:57;19.60;99.90
18950;DHT22;9608;49.288;8.130;2023-08-31T12:45:23;19.50;99.90
18950;DHT22;9608;49.288;8.130;2023-08-31T12:47:51;19.50;99.90
18950;DHT22;9608;49.288;8.130;2023-08-31T12:50:18;19.80;99.90
18950;DHT22;9608;49.288;8.130;2023-08-31T12:52:45;20.10;99.90
18950;DHT22;9608;49.288;8.130;2023-08-31T12:55:12;20.40;99.90
18950;DHT22;9608;49.288;8.130;2023-08-31T12:57:39;20.50;99.90
18950;DHT22;9608;49.288;8.130;2023-08-31T13:00:08;20.80;99.90
18950;DHT22;9608;49.288;8.130;2023-08-31T13:02:37;21.10;99.90
18950;DHT22;9608;49.288;8.130;2023-08-31T13:05:06;21.50;99.90
18950;DHT22;9608;49.288;8.130;2023-08-31T13:07:33;21.80;99.90
18950;DHT22;9608;49.288;8.130;2023-08-31T13:10:00;21.80;99.90
18950;DHT22;9608;49.288;8.130;2023-08-31T13:12:29;21.60;99.90
18950;DHT22;9608;49.288;8.130;2023-08-31T13:14:56;21.70;99.90
18950;DHT22;9608;49.288;8.130;2023-08-31T13:17:22;21.80;99.90
18950;DHT22;9608;49.288;8.130;2023-08-31T13:19:52;22.10;99.90
18950;DHT22;9608;49.288;8.130;2023-08-31T13:22:20;22.70;99.90
18950;DHT22;9608;49.288;8.130;2023-08-31T13:24:47;23.00;99.90
18950;DHT22;9608;49.288;8.130;2023-08-31T13:27:13;23.00;99.90
18950;DHT22;9608;49.288;8.130;2023-08-31T13:29:41;22.80;99.90
18950;DHT22;9608;49.288;8.130;2023-08-31T13:32:08;22.80;99.90
18950;DHT22;9608;49.288;8.130;2023-08-31T13:34:35;22.40;99.90
18950;DHT22;9608;49.288;8.130;2023-08-31T13:37:02;22.40;99.90
18950;DHT22;9608;49.288;8.130;2023-08-31T13:39:31;22.20;99.90
18950;DHT22;9608;49.288;8.130;2023-08-31T13:41:57;21.80;99.90
18950;DHT22;9608;49.288;8.130;2023-08-31T13:44:24;21.40;99.90
18950;DHT22;9608;49.288;8.130;2023-08-31T13:46:51;20.80;99.90
18950;DHT22;9608;49.288;8.130;2023-08-31T13:49:17;20.50;99.90
18950;DHT22;9608;49.288;8.130;2023-08-31T13:51:44;20.40;99.90
18950;DHT22;9608;49.288;8.130;2023-08-31T13:54:11;20.40;99.90
18950;DHT22;9608;49.288;8.130;2023-08-31T13:56:39;20.40;99.90
18950;DHT22;9608;49.288;8.130;2023-08-31T13:59:06;20.30;99.90
18950;DHT22;9608;49.288;8.130;2023-08-31T14:01:33;20.00;99.90
18950;DHT22;9608;49.288;8.130;2023-08-31T14:04:00;19.80;99.90
18950;DHT22;9608;49.288;8.130;2023-08-31T14:06:29;19.30;99.90
18950;DHT22;9608;49.288;8.130;2023-08-31T14:08:55;19.00;99.90
18950;DHT22;9608;49.288;8.130;2023-08-31T14:11:22;19.00;99.90
18950;DHT22;9608;49.288;8.130;2023-08-31T14:13:50;19.10;99.90
18950;DHT22;9608;49.288;8.130;2023-08-31T14:16:18;19.30;99.90
18950;DHT22;9608;49.288;8.130;2023-08-31T14:18:45;19.50;99.90
18950;DHT22;9608;49.288;8.130;2023-08-31T14:21:14;19.50;99.90
18950;DHT22;9608;49.288;8.130;2023-08-31T14:23:41;19.50;99.90
18950;DHT22;9608;49.288;8.130;2023-08-31T14:26:08;19.50;99.90
18950;DHT22;9608;49.288;8.130;2023-08-31T14:28:36;19.60;99.90
18950;DHT22;9608;49.288;8.130;2023-08-31T14:31:05;19.70;99.90
18950;DHT22;9608;49.288;8.130;2023-08-31T14:33:33;19.60;99.90
18950;DHT22;9608;49.288;8.130;2023-08-31T14:35:59;19.70;99.90
18950;DHT22;9608;49.288;8.130;2023-08-31T14:38:26;20.10;99.90
18950;DHT22;9608;49.288;8.130;2023-08-31T14:40:54;20.40;99.90
18950;DHT22;9608;49.288;8.130;2023-08-31T14:43:21;20.70;99.90
18950;DHT22;9608;49.288;8.130;2023-08-31T14:45:48;21.00;99.90
18950;DHT22;9608;49.288;8.130;2023-08-31T14:48:16;20.80;99.90
18950;DHT22;9608;49.288;8.130;2023-08-31T14:50:43;20.70;99.90
18950;DHT22;9608;49.288;8.130;2023-08-31T14:53:10;20.80;99.90
18950;DHT22;9608;49.288;8.130;2023-08-31T14:55:37;20.80;99.90
18950;DHT22;9608;49.288;8.130;2023-08-31T14:58:04;20.90;99.90
18950;DHT22;9608;49.288;8.130;2023-08-31T15:00:31;20.90;99.90
18950;DHT22;9608;49.288;8.130;2023-08-31T15:02:58;20.60;99.90
18950;DHT22;9608;49.288;8.130;2023-08-31T15:05:26;20.60;99.90
18950;DHT22;9608;49.288;8.130;2023-08-31T15:07:55;20.90;99.90
18950;DHT22;9608;49.288;8.130;2023-08-31T15:10:22;20.90;99.90
18950;DHT22;9608;49.288;8.130;2023-08-31T15:12:49;20.80;99.90
18950;DHT22;9608;49.288;8.130;2023-08-31T15:15:16;20.60;99.90
18950;DHT22;9608;49.288;8.130;2023-08-31T15:17:43;20.70;99.90
18950;DHT22;9608;49.288;8.130;2023-08-31T15:20:10;20.70;99.90
18950;DHT22;9608;49.288;8.130;2023-08-31T15:22:38;20.80;99.90
18950;DHT22;9608;49.288;8.130;2023-08-31T15:25:06;20.70;99.90
18950;DHT22;9608;49.288;8.130;2023-08-31T15:27:33;20.50;99.90
18950;DHT22;9608;49.288;8.130;2023-08-31T15:30:00;20.20;99.90
18950;DHT22;9608;49.288;8.130;2023-08-31T15:32:27;20.30;99.90
18950;DHT22;9608;49.288;8.130;2023-08-31T15:34:53;20.40;99.90
18950;DHT22;9608;49.288;8.130;2023-08-31T15:37:20;20.10;99.90
18950;DHT22;9608;49.288;8.130;2023-08-31T15:39:50;20.00;99.90
18950;DHT22;9608;49.288;8.130;2023-08-31T15:42:17;19.80;99.90
18950;DHT22;9608;49.288;8.130;2023-08-31T15:44:44;19.60;99.90
18950;DHT22;9608;49.288;8.130;2023-08-31T15:47:10;19.50;99.90